createdAt,value
2023-03-07T00:03:25.117Z,1.49
2023-03-07T00:23:27.761Z,1.60
2023-03-07T00:43:30.220Z,2.10
2023-03-07T01:03:33.775Z,1.61
2023-03-07T01:23:37.333Z,1.64
2023-03-07T02:03:56.147Z,2.70
2023-03-07T03:04:44.718Z,2.63
2023-03-07T03:45:31.205Z,2.70
2023-03-07T05:06:20.588Z,2.85
2023-03-07T05:46:38.835Z,2.49
2023-03-07T06:06:41.412Z,1.80
2023-03-07T06:26:44.154Z,1.66
2023-03-07T06:46:46.780Z,2.13
2023-03-07T07:06:49.258Z,2.66
2023-03-07T07:26:51.829Z,3.23
2023-03-07T07:46:54.538Z,3.81
2023-03-07T08:06:57.034Z,3.98
2023-03-07T08:27:00.222Z,5.11
2023-03-07T08:47:02.875Z,5.96
2023-03-07T09:07:14.988Z,6.37
2023-03-07T09:27:20.632Z,6.47
2023-03-07T09:47:23.457Z,6.72
2023-03-07T10:07:25.969Z,6.70
2023-03-07T10:27:28.600Z,6.97
2023-03-07T10:47:31.585Z,7.62
2023-03-07T11:07:35.148Z,7.95
2023-03-07T11:27:37.737Z,8.10
2023-03-07T11:47:40.551Z,8.47
2023-03-07T12:07:43.245Z,8.33
2023-03-07T12:27:45.962Z,8.13
2023-03-07T12:47:48.587Z,8.34
2023-03-07T13:07:51.828Z,8.07
2023-03-07T13:27:54.350Z,8.61
2023-03-07T13:47:56.867Z,9.02
2023-03-07T14:07:59.569Z,8.57
2023-03-07T14:28:02.361Z,7.98
2023-03-07T14:48:04.858Z,8.27
2023-03-07T15:08:08.076Z,8.11
2023-03-07T15:28:11.209Z,7.86
2023-03-07T19:32:23.006Z,5.11
2023-03-07T19:52:25.670Z,5.87
2023-03-07T20:12:29.265Z,5.79
2023-03-07T20:32:31.914Z,5.98
2023-03-07T20:52:34.681Z,5.98
2023-03-07T21:12:37.505Z,5.97
